createdAt,value
2022-08-18T00:02:14.537Z,20.15
2022-08-18T00:05:31.552Z,18.13
2022-08-18T00:08:48.193Z,17.18
2022-08-18T00:12:04.865Z,16.88
2022-08-18T00:15:24.861Z,17.98
2022-08-18T00:18:40.962Z,17.38
2022-08-18T00:21:57.195Z,17.40
2022-08-18T00:25:18.352Z,18.48
2022-08-18T00:28:34.956Z,17.18
2022-08-18T00:31:51.226Z,17.43
2022-08-18T00:35:19.266Z,18.35
2022-08-18T00:38:35.718Z,17.55
2022-08-18T00:41:52.099Z,18.25
2022-08-18T00:45:11.704Z,18.35
2022-08-18T00:48:28.536Z,17.75
2022-08-18T00:51:51.444Z,18.35
2022-08-18T00:55:09.418Z,18.75
2022-08-18T00:58:30.883Z,18.30
2022-08-18T01:01:49.274Z,18.00
2022-08-18T01:05:09.956Z,18.08
2022-08-18T01:08:29.201Z,18.40
2022-08-18T01:11:46.464Z,19.23
2022-08-18T01:15:04.124Z,18.83
2022-08-18T01:18:36.409Z,19.68
2022-08-18T01:21:57.185Z,19.58
2022-08-18T01:25:29.438Z,19.33
2022-08-18T01:28:50.284Z,19.45
2022-08-18T01:32:06.719Z,18.55
2022-08-18T01:35:26.362Z,19.50
2022-08-18T01:38:43.817Z,19.08
2022-08-18T01:42:00.252Z,19.05
2022-08-18T01:45:19.578Z,18.85
2022-08-18T01:48:37.804Z,19.13
2022-08-18T01:51:55.704Z,18.63
2022-08-18T01:55:14.752Z,19.23
2022-08-18T01:58:33.638Z,18.70
2022-08-18T02:01:54.913Z,19.08
2022-08-18T02:05:16.805Z,18.98
2022-08-18T02:08:33.437Z,19.48
2022-08-18T02:11:49.674Z,19.00
2022-08-18T02:15:08.711Z,19.55
2022-08-18T02:18:47.638Z,19.58
2022-08-18T02:21:46.768Z,18.85
2022-08-18T02:25:04.388Z,19.15
2022-08-18T02:28:25.256Z,18.30
2022-08-18T02:31:41.230Z,18.48
2022-08-18T02:34:57.419Z,19.38
2022-08-18T02:38:15.728Z,18.28
2022-08-18T02:41:34.669Z,18.83
2022-08-18T02:44:53.335Z,18.35
2022-08-18T02:48:09.850Z,18.00
2022-08-18T02:51:28.366Z,18.20
2022-08-18T02:54:44.702Z,17.83
2022-08-18T02:58:02.654Z,18.28
2022-08-18T03:01:18.958Z,19.33
2022-08-18T03:04:38.940Z,19.90
2022-08-18T03:07:56.275Z,20.85
2022-08-18T03:11:12.660Z,19.10
2022-08-18T03:14:28.940Z,27.10
2022-08-18T03:17:46.878Z,27.63
2022-08-18T03:21:03.963Z,28.90
2022-08-18T03:24:24.249Z,28.50
2022-08-18T03:27:41.800Z,27.03
2022-08-18T03:30:57.990Z,25.30
2022-08-18T03:34:17.006Z,27.80
2022-08-18T03:40:48.277Z,27.23
2022-08-18T03:44:04.752Z,24.90
2022-08-18T03:47:22.576Z,27.03
2022-08-18T03:50:40.593Z,25.75
2022-08-18T03:53:58.418Z,24.88
2022-08-18T04:00:50.671Z,25.48
2022-08-18T04:04:12.227Z,26.33
2022-08-18T04:07:28.413Z,24.48
2022-08-18T04:10:44.932Z,27.33
2022-08-18T04:14:02.540Z,24.05
2022-08-18T04:17:22.476Z,26.05
2022-08-18T04:20:59.344Z,25.48
2022-08-18T04:24:00.794Z,26.13
2022-08-18T04:27:16.902Z,24.33
2022-08-18T04:30:33.316Z,26.95
2022-08-18T04:33:50.262Z,26.25
2022-08-18T04:37:07.564Z,25.18
2022-08-18T04:40:25.341Z,25.78
2022-08-18T04:43:42.952Z,25.27
2022-08-18T04:47:01.269Z,24.33
2022-08-18T04:50:18.801Z,25.40
2022-08-18T04:53:53.259Z,27.00
2022-08-18T04:57:14.584Z,27.10
2022-08-18T05:00:30.617Z,24.83
2022-08-18T05:03:50.002Z,25.70
2022-08-18T05:07:05.738Z,24.55
2022-08-18T05:10:25.868Z,23.78
2022-08-18T05:13:42.392Z,25.20
2022-08-18T05:16:59.158Z,23.58
2022-08-18T05:20:18.170Z,23.40
2022-08-18T05:23:35.137Z,23.58
2022-08-18T05:26:54.612Z,24.73
2022-08-18T05:30:12.881Z,21.85
2022-08-18T05:33:29.253Z,21.75
2022-08-18T05:37:20.603Z,21.77
2022-08-18T05:40:37.189Z,22.00
2022-08-18T05:43:55.647Z,19.28
2022-08-18T05:47:17.765Z,19.68
2022-08-18T05:50:35.665Z,21.63
2022-08-18T05:54:06.652Z,20.30
2022-08-18T05:57:26.689Z,20.05
2022-08-18T06:00:43.803Z,19.33
2022-08-18T06:04:06.701Z,19.38
2022-08-18T06:07:33.460Z,19.80
2022-08-18T06:10:52.198Z,21.68
2022-08-18T06:14:08.599Z,21.90
2022-08-18T06:17:40.208Z,20.75
2022-08-18T06:21:38.297Z,20.80
2022-08-18T06:24:57.767Z,20.05
2022-08-18T06:28:18.706Z,20.43
2022-08-18T06:31:43.268Z,19.80
2022-08-18T06:35:12.047Z,19.18
2022-08-18T06:42:06.369Z,18.68
2022-08-18T06:45:25.271Z,17.70
2022-08-18T06:48:49.627Z,16.23
2022-08-18T06:52:05.960Z,18.38
2022-08-18T06:55:27.402Z,17.43
2022-08-18T06:58:43.553Z,18.03
2022-08-18T07:02:02.802Z,18.75
2022-08-18T07:05:35.158Z,18.80
2022-08-18T07:08:53.597Z,17.05
2022-08-18T07:12:14.586Z,17.90
2022-08-18T07:15:35.236Z,18.03
2022-08-18T07:18:52.208Z,18.33
2022-08-18T07:22:17.192Z,17.73
2022-08-18T07:25:37.732Z,16.23
2022-08-18T07:28:56.699Z,16.73
2022-08-18T07:32:21.473Z,15.38
2022-08-18T07:35:44.787Z,15.38
2022-08-18T07:39:06.405Z,16.10
2022-08-18T07:42:33.160Z,14.88
2022-08-18T07:45:49.732Z,15.63
2022-08-18T07:49:07.287Z,14.48
2022-08-18T07:52:36.519Z,14.08
2022-08-18T07:55:53.117Z,14.10
2022-08-18T07:59:15.255Z,13.75
2022-08-18T08:02:50.070Z,13.70
2022-08-18T08:06:13.749Z,14.70
2022-08-18T08:09:47.163Z,22.33
2022-08-18T08:13:09.663Z,50.13
2022-08-18T08:16:33.923Z,13.43
2022-08-18T08:20:20.597Z,12.10
2022-08-18T08:23:45.218Z,11.23
2022-08-18T08:27:05.856Z,11.10
2022-08-18T08:30:26.213Z,11.45
2022-08-18T08:33:49.472Z,11.68
2022-08-18T08:37:11.362Z,11.00
2022-08-18T08:40:32.039Z,10.28
2022-08-18T08:43:53.311Z,10.83
2022-08-18T08:47:13.838Z,8.93
2022-08-18T08:50:37.433Z,8.30
2022-08-18T08:53:59.180Z,8.23
2022-08-18T08:57:18.022Z,7.80
2022-08-18T09:04:14.081Z,13.20
2022-08-18T09:07:42.818Z,8.78
2022-08-18T09:11:24.388Z,9.43
2022-08-18T09:15:07.031Z,8.48
2022-08-18T09:18:56.713Z,8.05
2022-08-18T09:22:18.173Z,8.20
2022-08-18T09:25:59.438Z,7.60
2022-08-18T09:29:30.445Z,6.83
2022-08-18T09:33:18.852Z,7.90
2022-08-18T09:36:41.972Z,8.08
2022-08-18T09:40:33.378Z,7.55
2022-08-18T09:43:44.611Z,7.38
2022-08-18T09:47:09.056Z,7.33
2022-08-18T09:51:28.488Z,7.28
2022-08-18T09:54:57.387Z,7.45
2022-08-18T09:58:50.233Z,6.95
2022-08-18T10:02:14.216Z,14.28
2022-08-18T10:05:39.305Z,8.53
2022-08-18T10:09:36.704Z,7.10
2022-08-18T10:13:17.153Z,7.00
2022-08-18T10:17:13.097Z,7.53
2022-08-18T10:20:08.204Z,6.70
2022-08-18T10:24:14.711Z,6.20
2022-08-18T10:27:34.426Z,6.78
2022-08-18T10:31:12.307Z,6.43
2022-08-18T10:34:52.278Z,6.93
2022-08-18T10:38:05.677Z,6.60
2022-08-18T10:41:32.266Z,6.70
2022-08-18T10:44:53.078Z,7.28
2022-08-18T10:48:18.581Z,7.38
2022-08-18T10:52:00.431Z,6.60
2022-08-18T10:55:49.162Z,7.55
2022-08-18T10:59:16.550Z,6.68
2022-08-18T11:02:45.071Z,7.15
2022-08-18T11:06:21.219Z,6.80
2022-08-18T11:09:41.906Z,6.23
2022-08-18T11:13:13.828Z,6.13
2022-08-18T11:16:42.573Z,6.10
2022-08-18T11:20:03.229Z,6.18
2022-08-18T11:23:25.929Z,43.20
2022-08-18T11:26:52.351Z,7.20
2022-08-18T11:30:12.136Z,6.20
2022-08-18T11:33:30.714Z,6.55
2022-08-18T11:36:50.118Z,7.00
2022-08-18T11:40:17.700Z,7.03
2022-08-18T11:46:56.819Z,6.65
2022-08-18T11:50:20.521Z,6.33
2022-08-18T11:53:55.584Z,6.38
2022-08-18T11:57:46.208Z,5.13
2022-08-18T12:01:08.950Z,6.55
2022-08-18T12:04:35.720Z,6.40
2022-08-18T12:11:27.644Z,5.48
2022-08-18T12:15:13.837Z,5.48
2022-08-18T12:18:28.606Z,5.95
2022-08-18T12:21:40.312Z,6.45
2022-08-18T12:25:01.023Z,6.10
2022-08-18T12:28:17.391Z,6.85
2022-08-18T12:31:47.487Z,6.30
2022-08-18T12:34:51.712Z,6.25
2022-08-18T12:38:12.987Z,5.45
2022-08-18T12:41:26.497Z,6.20
2022-08-18T12:44:43.045Z,6.18
2022-08-18T12:48:00.376Z,6.53
2022-08-18T12:51:18.000Z,6.48
2022-08-18T12:54:36.875Z,6.28
2022-08-18T12:57:55.169Z,11.15
2022-08-18T13:01:11.390Z,16.08
2022-08-18T13:04:27.785Z,7.50
2022-08-18T13:07:44.164Z,6.48
2022-08-18T13:11:14.810Z,6.43
2022-08-18T13:14:20.814Z,6.20
2022-08-18T13:17:41.531Z,5.95
2022-08-18T13:20:59.410Z,6.68
2022-08-18T13:24:16.487Z,5.85
2022-08-18T13:27:35.936Z,6.30
2022-08-18T13:30:54.232Z,6.30
2022-08-18T13:34:15.335Z,6.08
2022-08-18T13:37:32.857Z,6.18
2022-08-18T13:40:49.768Z,6.23
2022-08-18T13:44:05.976Z,6.40
2022-08-18T13:47:24.233Z,5.50
2022-08-18T13:50:41.753Z,9.05
2022-08-18T13:54:17.843Z,6.28
2022-08-18T13:57:17.478Z,6.03
2022-08-18T14:00:35.466Z,24.48
2022-08-18T14:03:52.571Z,7.18
2022-08-18T14:07:11.117Z,10.68
2022-08-18T14:10:28.975Z,7.80
2022-08-18T14:13:45.239Z,6.48
2022-08-18T14:17:01.322Z,6.98
2022-08-18T14:20:34.587Z,6.73
2022-08-18T14:24:00.951Z,6.10
2022-08-18T14:27:17.645Z,9.83
2022-08-18T14:30:34.248Z,7.28
2022-08-18T14:33:53.704Z,6.28
2022-08-18T14:37:10.746Z,6.10
2022-08-18T14:40:28.404Z,6.33
2022-08-18T14:44:10.933Z,5.88
2022-08-18T14:47:04.060Z,6.20
2022-08-18T14:50:21.422Z,6.25
2022-08-18T14:53:41.858Z,6.05
2022-08-18T14:56:59.521Z,6.05
2022-08-18T15:00:22.674Z,7.15
2022-08-18T15:03:41.187Z,6.25
2022-08-18T15:06:58.387Z,5.98
2022-08-18T15:10:19.919Z,6.15
2022-08-18T15:13:39.043Z,6.70
2022-08-18T15:16:55.161Z,6.00
2022-08-18T15:20:14.777Z,6.25
2022-08-18T15:23:46.634Z,6.25
2022-08-18T15:27:10.232Z,5.73
2022-08-18T15:30:26.503Z,6.10
2022-08-18T15:33:43.148Z,6.60
2022-08-18T15:37:03.026Z,7.30
2022-08-18T15:40:31.169Z,6.35
2022-08-18T15:43:46.276Z,6.43
2022-08-18T15:47:03.059Z,6.30
2022-08-18T15:50:25.208Z,6.03
2022-08-18T15:53:40.090Z,5.98
2022-08-18T15:56:58.370Z,5.60
2022-08-18T16:00:21.153Z,6.15
2022-08-18T16:03:39.186Z,53.03
2022-08-18T16:06:56.901Z,20.60
2022-08-18T16:10:15.887Z,8.20
2022-08-18T16:13:33.582Z,6.03
2022-08-18T16:16:49.852Z,10.53
2022-08-18T16:20:06.027Z,6.05
2022-08-18T16:23:22.904Z,5.50
2022-08-18T16:26:39.294Z,6.05
2022-08-18T16:29:55.326Z,9.80
2022-08-18T16:33:14.208Z,7.05
2022-08-18T16:36:34.179Z,9.23
2022-08-18T16:39:50.558Z,6.88
2022-08-18T16:43:07.564Z,7.35
2022-08-18T16:46:28.433Z,7.08
2022-08-18T16:49:45.335Z,6.28
2022-08-18T16:53:02.901Z,6.58
2022-08-18T16:56:25.661Z,7.00
2022-08-18T16:59:56.195Z,5.63
2022-08-18T17:03:33.628Z,5.68
2022-08-18T17:06:50.565Z,6.20
2022-08-18T17:10:13.014Z,5.50
2022-08-18T17:13:36.083Z,7.28
2022-08-18T17:17:04.976Z,5.95
2022-08-18T17:20:25.662Z,5.10
2022-08-18T17:23:48.867Z,5.40
2022-08-18T17:27:26.486Z,5.53
2022-08-18T17:30:41.275Z,5.50
2022-08-18T17:34:00.744Z,5.65
2022-08-18T17:37:24.804Z,5.43
2022-08-18T17:40:46.452Z,5.58
2022-08-18T17:44:08.894Z,5.23
2022-08-18T17:47:33.379Z,5.55
2022-08-18T17:51:17.720Z,6.00
2022-08-18T17:54:43.017Z,6.08
2022-08-18T17:58:05.286Z,6.03
2022-08-18T18:01:23.033Z,5.60
2022-08-18T18:04:38.741Z,6.40
2022-08-18T18:08:07.272Z,6.05
2022-08-18T18:11:25.457Z,5.88
2022-08-18T18:14:44.816Z,5.80
2022-08-18T18:18:02.507Z,5.88
2022-08-18T18:22:00.556Z,6.90
2022-08-18T18:28:04.361Z,33.63
2022-08-18T18:31:35.333Z,10.00
2022-08-18T18:34:59.851Z,7.45
2022-08-18T18:38:30.577Z,7.20
2022-08-18T18:41:51.764Z,7.30
2022-08-18T18:45:14.636Z,7.68
2022-08-18T18:48:51.169Z,6.90
2022-08-18T18:51:57.579Z,6.55
2022-08-18T18:55:21.629Z,8.00
2022-08-18T18:58:47.022Z,8.68
2022-08-18T19:02:32.877Z,9.30
2022-08-18T19:05:35.914Z,8.63
2022-08-18T19:09:03.506Z,8.73
2022-08-18T19:12:37.153Z,8.93
2022-08-18T19:16:02.308Z,8.43
2022-08-18T19:19:38.465Z,9.10
2022-08-18T19:22:54.993Z,8.20
2022-08-18T19:26:15.543Z,8.43
2022-08-18T19:29:42.341Z,9.23
2022-08-18T19:33:12.854Z,7.85
2022-08-18T19:36:37.779Z,9.28
2022-08-18T19:40:00.739Z,8.98
2022-08-18T19:43:26.126Z,9.73
2022-08-18T19:46:47.740Z,8.83
2022-08-18T19:50:11.239Z,9.05
2022-08-18T19:53:50.528Z,9.08
2022-08-18T19:57:32.498Z,9.03
2022-08-18T20:00:54.629Z,9.30
2022-08-18T20:04:27.974Z,9.05
2022-08-18T20:08:48.525Z,8.88
2022-08-18T20:12:18.267Z,9.60
2022-08-18T20:15:37.288Z,9.18
2022-08-18T20:18:57.211Z,16.28
2022-08-18T20:22:22.090Z,14.25
2022-08-18T20:25:52.346Z,9.60
2022-08-18T20:29:10.334Z,9.05
2022-08-18T20:32:36.925Z,9.30
2022-08-18T20:36:08.794Z,9.48
2022-08-18T20:39:56.503Z,9.13
2022-08-18T20:43:13.378Z,9.90
2022-08-18T20:46:41.374Z,9.45
2022-08-18T20:50:11.609Z,9.75
2022-08-18T20:54:01.483Z,9.98
2022-08-18T20:57:20.649Z,9.60
2022-08-18T21:00:37.619Z,10.80
2022-08-18T21:03:55.598Z,9.98
2022-08-18T21:07:14.298Z,9.63
2022-08-18T21:10:32.943Z,10.55
2022-08-18T21:13:57.282Z,10.78
2022-08-18T21:17:24.049Z,9.83
2022-08-18T21:20:41.287Z,10.43
2022-08-18T21:24:01.865Z,10.23
2022-08-18T21:27:24.510Z,10.60
2022-08-18T21:30:41.162Z,10.13
2022-08-18T21:34:04.776Z,10.53
2022-08-18T21:37:24.981Z,10.73
2022-08-18T21:40:48.316Z,9.95
2022-08-18T21:44:09.325Z,11.10
2022-08-18T21:47:29.943Z,10.48
2022-08-18T21:50:54.264Z,10.68
2022-08-18T21:54:10.766Z,10.25
2022-08-18T21:57:33.888Z,10.80
2022-08-18T22:00:52.541Z,10.80
2022-08-18T22:04:13.099Z,11.05
2022-08-18T22:07:34.983Z,10.70
2022-08-18T22:11:03.247Z,10.95
2022-08-18T22:14:53.755Z,10.73
2022-08-18T22:18:06.229Z,10.50
2022-08-18T22:21:46.264Z,11.43
2022-08-18T22:25:09.931Z,11.80
2022-08-18T22:28:32.381Z,11.40
2022-08-18T22:31:52.762Z,11.53
2022-08-18T22:35:10.109Z,12.10
2022-08-18T22:38:26.262Z,12.60
2022-08-18T22:41:42.714Z,12.20
2022-08-18T22:45:04.586Z,12.15
2022-08-18T22:51:37.724Z,11.73
2022-08-18T22:54:55.618Z,11.20
2022-08-18T22:58:14.960Z,11.70
2022-08-18T23:01:33.366Z,11.95
2022-08-18T23:04:50.020Z,12.60
2022-08-18T23:08:06.195Z,11.78
2022-08-18T23:11:22.524Z,12.48
2022-08-18T23:14:42.377Z,12.68
2022-08-18T23:17:59.027Z,12.28
2022-08-18T23:21:33.574Z,12.55
2022-08-18T23:24:34.047Z,13.08
2022-08-18T23:27:53.587Z,13.83
2022-08-18T23:31:09.805Z,14.65
2022-08-18T23:34:29.708Z,13.10
2022-08-18T23:37:50.090Z,13.03
2022-08-18T23:41:06.395Z,12.93
2022-08-18T23:44:23.844Z,13.35
2022-08-18T23:51:00.814Z,13.48
2022-08-18T23:54:21.206Z,12.78
2022-08-18T23:57:37.322Z,12.85
